Tangier, Virginia
Current Conditions -  °F | °C
As of 8:17 AM on Thursday 18 Dec 2014 (Local Time) from KTGI Reporting Station
Clear Clear  
Wind Chill: 29°   Ceiling: Unl
Heat Index: 39°   Visibility: 10mi
Dew Point: 27°   Wind: 23mph
Humidity: 61%   Direction: 320°NW
Pressure: 30.15"   Gusts: 28mph
Location:  37.83°N, 75.99°W
Report Text: KTGI 181317Z AUTO 32020G24KT 10SM CLR 04/M03 A3015 RMK AO1
Loading
Personal Weather Stations






























Interactive Weather Map New forecast layout! Learn more

10-Day Weather Forecast

Advertisements
Track Severe Weather on mobile